Time;durP1;ratioP1;P1;durP2;ratioP2;P2;SDS_P1;SDS_P2;PMS_P1;PMS_P2;Temp;Humidity;BMP_temperature;BMP_pressure;BME280_temperature;BME280_humidity;BME280_pressure;Samples;Min_cycle;Max_cycle;Signal;HPM_P1;HPM_P2
2023/01/05 00:02:15;;;;;;;;;;;;;;;20.79;29.51;98730.84;5058096;28;893;-78
2023/01/05 00:04:41;;;;;;;;;;;;;;;21.02;28.72;98735.81;5057986;28;933;-78
2023/01/05 00:07:06;;;;;;;;;;;;;;;21.22;28.40;98741.63;5058209;28;965;-78
2023/01/05 00:09:32;;;;;;;;;;;;;;;20.99;28.67;98725.34;5056875;28;927;-78
2023/01/05 00:22:56;;;;;;;;;;;;;;;21.05;28.53;98714.38;5057407;28;1084;-78
2023/01/05 00:25:23;;;;;;;;;;;;;;;20.86;28.89;98723.50;5038622;28;1055;-78
2023/01/05 00:27:50;;;;;;;;;;;;;;;20.93;28.93;98720.56;5058013;28;901;-78
2023/01/05 00:30:16;;;;;;;;;;;;;;;20.96;29.05;98711.25;5018392;28;1064;-78
2023/01/05 00:32:42;;;;;;;;;;;;;;;21.10;28.66;98705.41;4986020;28;1121;-78
2023/01/05 00:35:08;;;;;;;;;;;;;;;21.31;28.42;98704.34;5035305;28;1048;-78
2023/01/05 00:37:33;;;;;;;;;;;;;;;21.03;28.55;98722.44;5035096;28;1033;-78
2023/01/05 00:39:59;;;;;;;;;;;;;;;20.84;29.01;98711.81;5018461;28;1906;-79
2023/01/05 00:42:25;;;;;;;;;;;;;;;20.76;29.02;98711.88;5018145;28;1219;-79
2023/01/05 00:44:50;;;;;;;;;;;;;;;21.18;28.47;98706.88;5018315;28;953;-79
2023/01/05 00:47:16;;;;;;;;;;;;;;;21.23;28.45;98709.25;5018637;28;1115;-79
2023/01/05 00:49:41;;;;;;;;;;;;;;;21.36;28.07;98705.88;5035018;28;953;-79
2023/01/05 00:52:07;;;;;;;;;;;;;;;20.97;28.70;98701.53;5035024;28;1160;-79
2023/01/05 00:54:32;;;;;;;;;;;;;;;20.86;28.78;98706.50;5034320;28;1103;-79
2023/01/05 00:56:58;;;;;;;;;;;;;;;20.66;29.22;98704.31;5018681;28;1107;-79
2023/01/05 00:59:23;;;;;;;;;;;;;;;20.72;29.10;98702.63;5018474;28;1973;-79
2023/01/05 01:01:50;;;;;;;;;;;;;;;21.03;28.64;98697.00;5045774;28;1377;-79
2023/01/05 01:04:15;;;;;;;;;;;;;;;21.20;28.20;98692.34;5038952;28;1034;-79
2023/01/05 01:06:41;;;;;;;;;;;;;;;21.36;27.94;98688.91;5055423;28;1201;-79
2023/01/05 01:09:07;;;;;;;;;;;;;;;21.10;28.29;98682.75;5055504;28;1675;-79
2023/01/05 01:11:32;;;;;;;;;;;;;;;20.88;29.01;98675.78;5056527;28;966;-79
2023/01/05 01:13:57;;;;;;;;;;;;;;;20.56;29.42;98676.97;5055282;28;984;-79
2023/01/05 01:16:23;;;;;;;;;;;;;;;21.09;28.48;98672.69;5056854;28;946;-79
2023/01/05 01:18:48;;;;;;;;;;;;;;;21.12;28.77;98668.97;5038961;28;1905;-79
2023/01/05 01:21:14;;;;;;;;;;;;;;;21.40;28.01;98673.47;5018023;28;1087;-78
2023/01/05 01:23:39;;;;;;;;;;;;;;;20.84;28.63;98669.38;5017832;28;1199;-79
2023/01/05 01:26:09;;;;;;;;;;;;;;;20.71;29.29;98661.44;5017838;28;1000;-79
2023/01/05 01:28:34;;;;;;;;;;;;;;;20.58;29.41;98665.25;5034001;28;970;-79
2023/01/05 01:31:00;;;;;;;;;;;;;;;20.93;28.85;98649.84;5034328;28;916;-79
2023/01/05 01:33:25;;;;;;;;;;;;;;;21.16;28.29;98652.75;5017467;28;1329;-79
2023/01/05 01:35:51;;;;;;;;;;;;;;;21.46;27.81;98651.13;5017902;28;996;-79
2023/01/05 01:38:16;;;;;;;;;;;;;;;21.40;27.90;98650.00;5017522;28;1107;-79
2023/01/05 01:40:43;;;;;;;;;;;;;;;21.07;28.25;98644.78;5017395;28;1981;-79
2023/01/05 01:43:27;;;;;;;;;;;;;;;20.57;29.20;98632.53;5033860;28;1285;-79
2023/01/05 01:45:53;;;;;;;;;;;;;;;20.68;29.16;98625.53;4994628;28;1143;-79
2023/01/05 01:48:19;;;;;;;;;;;;;;;20.79;29.09;98629.03;4994617;28;1005;-79
2023/01/05 01:50:53;;;;;;;;;;;;;;;21.27;28.11;98625.09;4994565;28;1158;-79
2023/01/05 01:53:24;;;;;;;;;;;;;;;21.30;28.32;98612.16;5016372;28;1186;-79
2023/01/05 01:55:50;;;;;;;;;;;;;;;21.06;28.30;98619.75;5001243;28;1215;-80
2023/01/05 01:58:16;;;;;;;;;;;;;;;20.96;28.53;98620.72;5000874;28;1430;-79
2023/01/05 02:00:42;;;;;;;;;;;;;;;20.68;28.96;98617.06;5017593;28;1903;-80
2023/01/05 02:03:08;;;;;;;;;;;;;;;20.83;28.90;98617.66;5033899;28;1069;-79
2023/01/05 02:05:35;;;;;;;;;;;;;;;21.02;28.53;98607.69;5001079;28;1194;-80
2023/01/05 02:08:00;;;;;;;;;;;;;;;21.11;28.37;98605.13;5033549;28;1024;-79
2023/01/05 02:10:37;;;;;;;;;;;;;;;21.02;28.25;98602.03;5020228;28;948;-79
2023/01/05 02:13:07;;;;;;;;;;;;;;;20.75;28.86;98594.31;5021382;28;1090;-79
2023/01/05 02:15:38;;;;;;;;;;;;;;;20.62;29.08;98589.66;5004926;28;1159;-79
2023/01/05 02:18:10;;;;;;;;;;;;;;;20.74;29.17;98586.28;5058886;28;1312;-79
2023/01/05 02:20:48;;;;;;;;;;;;;;;21.10;28.55;98582.94;5058443;28;1902;-79
2023/01/05 02:23:34;;;;;;;;;;;;;;;21.19;28.32;98583.16;5058608;28;1502;-79
2023/01/05 02:26:07;;;;;;;;;;;;;;;21.34;28.03;98584.56;5037598;28;1099;-79
2023/01/05 02:28:38;;;;;;;;;;;;;;;20.91;28.45;98573.09;5021085;28;1132;-79
2023/01/05 02:31:19;;;;;;;;;;;;;;;20.71;28.86;98570.94;5020989;28;1128;-79
2023/01/05 02:33:59;;;;;;;;;;;;;;;20.62;29.07;98562.19;5020851;28;1191;-79
2023/01/05 02:36:32;;;;;;;;;;;;;;;20.97;28.47;98571.38;5020519;28;1413;-79
2023/01/05 02:39:16;;;;;;;;;;;;;;;21.10;28.15;98558.25;5020650;28;1969;-79
2023/01/05 02:41:54;;;;;;;;;;;;;;;21.12;28.41;98560.66;5020882;28;1150;-79
2023/01/05 02:44:21;;;;;;;;;;;;;;;21.01;28.55;98549.50;5020643;28;1181;-79
2023/01/05 02:47:17;;;;;;;;;;;;;;;20.76;28.52;98547.03;5005013;28;1180;-79
2023/01/05 02:49:42;;;;;;;;;;;;;;;20.91;28.52;98539.16;4981332;28;1150;-79
2023/01/05 02:52:08;;;;;;;;;;;;;;;21.14;28.03;98536.38;4981504;28;1120;-79
2023/01/05 02:54:57;;;;;;;;;;;;;;;21.36;28.00;98541.69;4981592;28;1028;-79
2023/01/05 02:57:45;;;;;;;;;;;;;;;21.07;28.03;98537.25;4977954;28;1116;-79
2023/01/05 03:00:10;;;;;;;;;;;;;;;20.79;28.42;98527.19;4977849;28;1922;-79
2023/01/05 03:02:35;;;;;;;;;;;;;;;20.86;28.43;98525.50;4967608;28;1152;-79
2023/01/05 03:05:05;;;;;;;;;;;;;;;21.13;28.28;98540.41;4980977;28;1043;-79
2023/01/05 03:07:32;;;;;;;;;;;;;;;21.22;27.89;98532.19;4980709;28;1351;-80
2023/01/05 03:13:39;;;;;;;;;;;;;;;21.29;27.68;98520.72;4965022;28;1530;-79
2023/01/05 03:15:28;;;;;;;;;;;;;;;20.74;28.45;98507.88;4967258;28;1349;-79
2023/01/05 03:17:54;;;;;;;;;;;;;;;19.18;28.75;98274.34;4964851;28;1165;-79
2023/01/05 03:20:21;;;;;;;;;;;;;;;21.07;28.23;98508.97;4963960;28;1987;-79
2023/01/05 03:36:55;;;;;;;;;;;;;;;21.01;28.28;98492.91;4986392;28;1092;-79
2023/01/05 03:39:25;;;;;;;;;;;;;;;20.80;28.16;98492.03;4983901;28;1942;-79
2023/01/05 03:41:51;;;;;;;;;;;;;;;20.77;28.31;98492.88;4983969;28;1136;-79
2023/01/05 03:44:17;;;;;;;;;;;;;;;20.80;28.42;98494.88;4983927;28;1185;-79
2023/01/05 03:46:44;;;;;;;;;;;;;;;21.13;27.86;98494.34;4999892;28;935;-79
2023/01/05 03:49:10;;;;;;;;;;;;;;;21.32;27.50;98485.16;5000159;28;1411;-79
2023/01/05 03:51:35;;;;;;;;;;;;;;;21.24;27.57;98495.78;4983878;28;952;-79
2023/01/05 03:54:01;;;;;;;;;;;;;;;21.06;27.76;98489.59;5016289;28;984;-79
2023/01/05 03:56:27;;;;;;;;;;;;;;;21.02;27.77;98480.38;4999936;28;1076;-80
2023/01/05 03:58:55;;;;;;;;;;;;;;;20.63;28.54;98478.97;5026823;28;1949;-79
2023/01/05 04:01:21;;;;;;;;;;;;;;;21.09;27.78;98477.44;5056657;28;1261;-79
2023/01/05 04:03:47;;;;;;;;;;;;;;;21.12;27.56;98482.22;5057046;28;1280;-80
2023/01/05 04:06:12;;;;;;;;;;;;;;;20.96;27.86;98485.72;5056944;28;1136;-79
2023/01/05 04:08:38;;;;;;;;;;;;;;;20.93;28.01;98485.75;5058373;28;1100;-79
2023/01/05 04:11:13;;;;;;;;;;;;;;;20.73;28.23;98482.88;5056735;28;898;-79
2023/01/05 04:13:39;;;;;;;;;;;;;;;21.03;27.93;98479.13;5056348;28;1326;-79
2023/01/05 04:16:05;;;;;;;;;;;;;;;21.12;27.69;98473.72;5039923;28;1083;-80
2023/01/05 04:18:31;;;;;;;;;;;;;;;21.26;27.37;98475.53;5022511;28;1220;-79
2023/01/05 04:20:57;;;;;;;;;;;;;;;21.01;27.71;98475.94;5057740;28;1914;-79
2023/01/05 04:23:23;;;;;;;;;;;;;;;20.87;27.85;98482.63;5056568;28;1338;-79
2023/01/05 04:25:52;;;;;;;;;;;;;;;20.87;28.19;98476.97;5056474;28;1449;-79
2023/01/05 04:28:21;;;;;;;;;;;;;;;21.07;27.63;98474.22;5056271;28;1370;-79
2023/01/05 04:30:51;;;;;;;;;;;;;;;21.05;27.57;98476.69;5057495;28;948;-79
2023/01/05 04:33:16;;;;;;;;;;;;;;;20.95;27.73;98478.47;5055881;28;1037;-79
2023/01/05 04:35:43;;;;;;;;;;;;;;;20.60;28.27;98477.00;5023518;28;1491;-80
2023/01/05 04:38:10;;;;;;;;;;;;;;;20.70;28.25;98481.69;5056254;28;1820;-79
2023/01/05 04:40:36;;;;;;;;;;;;;;;20.64;28.61;98483.41;5055292;28;1902;-79
2023/01/05 04:43:02;;;;;;;;;;;;;;;21.02;27.72;98477.53;5044178;28;1716;-79
2023/01/05 04:45:28;;;;;;;;;;;;;;;21.32;27.43;98474.63;5056149;28;1333;-79
2023/01/05 04:47:54;;;;;;;;;;;;;;;21.32;27.17;98463.28;5057284;28;1278;-79
2023/01/05 04:50:20;;;;;;;;;;;;;;;21.06;27.63;98467.75;5056253;28;1465;-79
2023/01/05 04:52:47;;;;;;;;;;;;;;;21.04;27.58;98460.94;5055887;28;1419;-79
2023/01/05 04:55:13;;;;;;;;;;;;;;;20.99;27.73;98462.25;5055856;28;1203;-79
2023/01/05 04:57:39;;;;;;;;;;;;;;;21.26;27.54;98465.00;5055654;28;1771;-79
2023/01/05 05:00:07;;;;;;;;;;;;;;;21.38;27.10;98454.31;5055116;28;1906;-79
2023/01/05 05:02:33;;;;;;;;;;;;;;;21.01;27.56;98454.09;5039548;28;1279;-79
2023/01/05 05:04:59;;;;;;;;;;;;;;;20.74;28.01;98433.56;5039151;28;1264;-79
2023/01/05 05:07:25;;;;;;;;;;;;;;;20.36;28.73;98424.41;5039117;28;1134;-79
2023/01/05 05:09:51;;;;;;;;;;;;;;;20.86;28.06;98423.66;5038928;28;1112;-79
2023/01/05 05:12:20;;;;;;;;;;;;;;;21.05;27.61;98422.94;5055872;28;1544;-80
2023/01/05 05:14:48;;;;;;;;;;;;;;;21.26;27.54;98421.75;5055744;28;1528;-79
2023/01/05 05:17:14;;;;;;;;;;;;;;;21.26;27.10;98414.06;5038546;28;1682;-79
2023/01/05 05:19:40;;;;;;;;;;;;;;;21.05;27.73;98420.09;5035400;28;1902;-80
2023/01/05 05:22:06;;;;;;;;;;;;;;;20.73;28.05;98420.66;5038324;28;1589;-79
2023/01/05 05:24:32;;;;;;;;;;;;;;;20.81;28.20;98417.25;5052099;28;1323;-79
2023/01/05 05:26:58;;;;;;;;;;;;;;;21.13;27.52;98421.56;5034239;28;1428;-79
2023/01/05 05:29:23;;;;;;;;;;;;;;;21.20;27.36;98421.44;5034383;28;954;-79
2023/01/05 05:31:49;;;;;;;;;;;;;;;21.19;27.18;98424.69;5018687;28;1950;-79
2023/01/05 05:34:14;;;;;;;;;;;;;;;20.88;27.75;98421.19;5017547;28;1092;-79
2023/01/05 05:36:40;;;;;;;;;;;;;;;20.63;28.09;98404.66;5017564;28;990;-79
2023/01/05 05:39:05;;;;;;;;;;;;;;;20.90;27.84;98407.44;5035322;28;1993;-80
2023/01/05 05:41:31;;;;;;;;;;;;;;;21.22;27.37;98399.16;5042099;28;1969;-79
2023/01/05 05:43:59;;;;;;;;;;;;;;;21.41;26.90;98391.19;5053328;28;988;-79
2023/01/05 05:46:27;;;;;;;;;;;;;;;21.10;27.53;98394.16;5039375;28;1881;-79
2023/01/05 05:48:53;;;;;;;;;;;;;;;20.93;27.84;98386.75;5017539;28;939;-79
2023/01/05 05:51:19;;;;;;;;;;;;;;;20.73;27.87;98381.88;5017299;28;1097;-79
2023/01/05 05:53:44;;;;;;;;;;;;;;;20.78;27.91;98384.19;5033637;28;1074;-79
2023/01/05 05:56:10;;;;;;;;;;;;;;;21.03;27.88;98388.59;5034247;28;966;-79
2023/01/05 05:58:35;;;;;;;;;;;;;;;21.35;26.93;98381.56;5049277;28;1740;-79
2023/01/05 06:01:00;;;;;;;;;;;;;;;20.94;27.52;98379.91;5055013;28;1985;-80
2023/01/05 06:03:26;;;;;;;;;;;;;;;20.87;27.62;98386.47;5055669;28;1469;-79
2023/01/05 06:05:52;;;;;;;;;;;;;;;20.84;27.69;98378.06;5055571;28;898;-80
2023/01/05 06:08:17;;;;;;;;;;;;;;;20.68;28.25;98362.56;5037796;28;1003;-80
2023/01/05 06:10:42;;;;;;;;;;;;;;;21.17;27.51;98364.91;5043051;28;1468;-79
2023/01/05 06:13:08;;;;;;;;;;;;;;;21.37;26.90;98359.31;5031432;28;2333;-79
2023/01/05 06:15:34;;;;;;;;;;;;;;;21.11;27.46;98364.63;5049037;28;1743;-80
2023/01/05 06:17:59;;;;;;;;;;;;;;;20.74;28.08;98354.38;5055835;28;1944;-80
2023/01/05 06:20:25;;;;;;;;;;;;;;;20.65;27.85;98356.97;5055827;28;1914;-80
2023/01/05 06:22:50;;;;;;;;;;;;;;;20.77;27.85;98354.31;5055944;28;924;-80
2023/01/05 06:25:15;;;;;;;;;;;;;;;20.87;27.88;98365.88;5055829;28;919;-80
2023/01/05 06:27:41;;;;;;;;;;;;;;;21.38;26.96;98355.22;5035655;28;965;-79
2023/01/05 06:30:07;;;;;;;;;;;;;;;21.24;27.01;98354.28;5035982;28;1929;-79
2023/01/05 06:32:32;;;;;;;;;;;;;;;20.84;27.79;98363.91;5033709;28;988;-80
2023/01/05 06:34:57;;;;;;;;;;;;;;;20.60;28.00;98358.25;5033425;28;1281;-79
2023/01/05 06:37:23;;;;;;;;;;;;;;;20.62;28.12;98358.59;5033485;28;1145;-80
2023/01/05 06:39:48;;;;;;;;;;;;;;;21.13;27.24;98353.66;5018091;28;1975;-80
2023/01/05 06:42:14;;;;;;;;;;;;;;;21.26;27.42;98351.00;5036387;28;1634;-80
2023/01/05 06:44:39;;;;;;;;;;;;;;;21.27;27.00;98352.59;5017197;28;1818;-80
2023/01/05 06:47:05;;;;;;;;;;;;;;;20.88;27.62;98358.97;5016925;28;1042;-80
2023/01/05 06:49:30;;;;;;;;;;;;;;;20.75;27.66;98351.13;5035125;28;1755;-79
2023/01/05 06:51:55;;;;;;;;;;;;;;;20.86;27.98;98355.78;5036560;28;867;-79
2023/01/05 06:54:21;;;;;;;;;;;;;;;21.30;26.87;98352.56;5036202;28;1036;-79
2023/01/05 06:56:46;;;;;;;;;;;;;;;21.25;27.04;98355.84;5056545;28;872;-80
2023/01/05 06:59:12;;;;;;;;;;;;;;;21.40;26.81;98349.91;5058680;28;1910;-79
2023/01/05 07:01:37;;;;;;;;;;;;;;;20.92;27.60;98348.41;5057762;28;1747;-80
2023/01/05 07:04:03;;;;;;;;;;;;;;;20.73;28.02;98353.59;5039655;28;1103;-80
2023/01/05 07:06:28;;;;;;;;;;;;;;;20.76;27.72;98346.25;5039116;28;1029;-79
2023/01/05 07:08:54;;;;;;;;;;;;;;;21.03;27.28;98343.34;5037922;28;937;-79
2023/01/05 07:11:19;;;;;;;;;;;;;;;21.12;27.26;98335.09;5039273;28;1003;-79
2023/01/05 07:13:48;;;;;;;;;;;;;;;21.23;26.97;98335.66;5054425;28;1297;-79
2023/01/05 07:16:14;;;;;;;;;;;;;;;21.03;27.26;98321.50;5074414;28;1025;-79
2023/01/05 07:18:39;;;;;;;;;;;;;;;20.83;27.80;98328.34;5057446;28;1205;-79
2023/01/05 07:21:05;;;;;;;;;;;;;;;20.79;27.61;98323.56;5051513;28;1961;-80
2023/01/05 07:23:30;;;;;;;;;;;;;;;20.55;27.96;98328.44;5052441;28;1848;-80
2023/01/05 07:25:58;;;;;;;;;;;;;;;21.31;26.79;98314.53;5058722;28;1981;-79
2023/01/05 07:28:24;;;;;;;;;;;;;;;21.27;26.96;98313.75;5074284;28;963;-79
2023/01/05 07:30:50;;;;;;;;;;;;;;;21.01;27.11;98317.53;5058773;28;864;-79
2023/01/05 07:33:15;;;;;;;;;;;;;;;20.85;27.71;98314.59;5057541;28;1208;-79
2023/01/05 07:35:41;;;;;;;;;;;;;;;20.75;27.89;98305.06;5071688;28;951;-79
2023/01/05 07:38:06;;;;;;;;;;;;;;;20.92;27.68;98308.78;5038800;28;1953;-79
2023/01/05 07:40:31;;;;;;;;;;;;;;;21.17;27.03;98299.81;5058349;28;1902;-80
2023/01/05 07:42:57;;;;;;;;;;;;;;;21.32;26.84;98307.63;5057014;28;941;-79
2023/01/05 07:45:22;;;;;;;;;;;;;;;21.32;26.98;98304.78;5057144;28;928;-80
2023/01/05 07:47:48;;;;;;;;;;;;;;;21.03;27.26;98303.72;5057298;28;1484;-79
2023/01/05 07:50:13;;;;;;;;;;;;;;;20.65;28.00;98306.88;5058395;28;895;-80
2023/01/05 07:52:39;;;;;;;;;;;;;;;20.60;28.07;98293.22;5055644;28;1230;-79
2023/01/05 07:55:05;;;;;;;;;;;;;;;20.98;27.41;98284.44;5072629;28;899;-79
2023/01/05 07:57:30;;;;;;;;;;;;;;;21.22;26.95;98297.28;5065910;28;1734;-79
2023/01/05 07:59:55;;;;;;;;;;;;;;;21.30;26.95;98295.94;5052511;28;1984;-79
2023/01/05 08:02:21;;;;;;;;;;;;;;;21.00;27.10;98290.47;5035670;28;1224;-79
2023/01/05 08:04:46;;;;;;;;;;;;;;;20.76;27.68;98279.19;5052186;28;953;-79
2023/01/05 08:07:13;;;;;;;;;;;;;;;20.65;27.91;98278.59;5037251;28;1510;-79
2023/01/05 08:12:22;;;;;;;;;;;;;;;21.22;26.91;98271.03;5055558;28;1032;-79
2023/01/05 08:14:48;;;;;;;;;;;;;;;21.41;26.96;98269.44;4973475;28;1022;-79
2023/01/05 08:17:13;;;;;;;;;;;;;;;21.00;27.36;98259.34;5054958;28;1498;-79
2023/01/05 08:19:39;;;;;;;;;;;;;;;20.80;27.74;98268.59;5049958;28;1961;-79
2023/01/05 08:22:04;;;;;;;;;;;;;;;20.74;27.79;98270.34;5039014;28;1048;-79
2023/01/05 08:24:30;;;;;;;;;;;;;;;20.84;27.66;98247.97;5057310;28;1846;-79
2023/01/05 08:26:55;;;;;;;;;;;;;;;21.07;27.15;98253.53;5055776;28;1558;-80
2023/01/05 08:29:21;;;;;;;;;;;;;;;21.12;26.98;98255.84;5057533;28;920;-80
2023/01/05 08:31:46;;;;;;;;;;;;;;;21.06;27.25;98257.59;5057303;28;921;-79
2023/01/05 08:34:12;;;;;;;;;;;;;;;20.85;27.44;98249.53;5056019;28;1093;-79
2023/01/05 08:36:38;;;;;;;;;;;;;;;20.61;27.66;98249.56;5063218;28;1762;-80
2023/01/05 08:39:04;;;;;;;;;;;;;;;20.75;27.63;98238.00;5037826;28;1894;-79
2023/01/05 08:41:30;;;;;;;;;;;;;;;21.18;27.19;98225.81;5049735;28;1954;-79
2023/01/05 08:43:57;;;;;;;;;;;;;;;21.31;26.83;98234.47;5055521;28;1479;-80
2023/01/05 08:46:23;;;;;;;;;;;;;;;21.53;26.51;98226.31;5055810;28;1560;-79
2023/01/05 08:48:53;;;;;;;;;;;;;;;21.29;26.96;98220.72;5072389;28;1249;-79
2023/01/05 08:51:18;;;;;;;;;;;;;;;20.87;27.25;98215.97;5055762;28;1499;-79
2023/01/05 08:53:44;;;;;;;;;;;;;;;20.67;27.97;98210.28;5057322;28;903;-79
2023/01/05 08:56:09;;;;;;;;;;;;;;;20.79;27.37;98213.28;5056858;28;901;-79
2023/01/05 08:58:35;;;;;;;;;;;;;;;20.99;27.33;98209.66;5057209;28;835;-80
2023/01/05 09:01:04;;;;;;;;;;;;;;;21.46;26.53;98195.34;5053874;28;1994;-79
2023/01/05 09:03:30;;;;;;;;;;;;;;;21.38;26.68;98191.84;5055989;28;871;-79
2023/01/05 09:05:58;;;;;;;;;;;;;;;20.86;27.50;98186.09;5056922;28;1024;-78
2023/01/05 09:08:23;;;;;;;;;;;;;;;20.62;27.80;98177.66;5056987;28;931;-79
2023/01/05 09:10:49;;;;;;;;;;;;;;;20.61;27.79;98181.72;5056003;28;1537;-79
2023/01/05 09:13:14;;;;;;;;;;;;;;;20.92;27.59;98173.81;5057004;28;864;-79
2023/01/05 09:15:40;;;;;;;;;;;;;;;21.09;27.31;98166.22;5056548;28;948;-79
2023/01/05 09:18:05;;;;;;;;;;;;;;;21.38;26.76;98157.88;5056584;28;940;-79
2023/01/05 09:20:30;;;;;;;;;;;;;;;21.19;27.21;98164.34;5055106;28;1988;-80
2023/01/05 09:22:56;;;;;;;;;;;;;;;20.85;27.59;98144.91;5054825;28;1471;-79
2023/01/05 09:25:21;;;;;;;;;;;;;;;20.66;27.79;98149.31;5056612;28;842;-79
2023/01/05 09:27:47;;;;;;;;;;;;;;;20.78;27.73;98146.66;5056575;28;1122;-79
2023/01/05 09:30:14;;;;;;;;;;;;;;;21.08;27.54;98139.13;5055548;28;1461;-80
2023/01/05 09:32:39;;;;;;;;;;;;;;;21.26;27.27;98131.03;5056309;28;953;-79
2023/01/05 09:35:05;;;;;;;;;;;;;;;21.05;27.18;98120.22;5071050;28;1043;-79
2023/01/05 09:37:31;;;;;;;;;;;;;;;20.78;27.64;98118.38;5055844;28;1557;-79
2023/01/05 09:39:56;;;;;;;;;;;;;;;20.64;27.87;98107.34;5037302;28;1906;-80
2023/01/05 09:42:22;;;;;;;;;;;;;;;20.98;27.58;98103.38;5055793;28;1406;-80
2023/01/05 09:44:49;;;;;;;;;;;;;;;21.14;27.19;98086.47;5071855;28;897;-79
2023/01/05 09:47:33;;;;;;;;;;;;;;;21.27;27.00;98081.69;5071764;28;1220;-79
2023/01/05 09:49:58;;;;;;;;;;;;;;;21.21;26.99;98077.81;5056050;28;994;-79
2023/01/05 09:52:24;;;;;;;;;;;;;;;21.08;27.06;98074.84;5055383;28;1533;-79
2023/01/05 09:54:49;;;;;;;;;;;;;;;20.93;27.54;98067.13;5056317;28;948;-79
2023/01/05 09:57:19;;;;;;;;;;;;;;;21.21;27.46;98066.47;5071397;28;961;-79
2023/01/05 09:59:54;;;;;;;;;;;;;;;21.15;27.08;98062.59;5056217;28;1981;-80
2023/01/05 10:02:23;;;;;;;;;;;;;;;20.98;27.35;98052.47;5055306;28;1340;-79
2023/01/05 10:04:48;;;;;;;;;;;;;;;20.93;27.69;98056.59;5055867;28;929;-79
2023/01/05 10:07:23;;;;;;;;;;;;;;;20.79;27.88;98046.44;5056658;28;896;-79
2023/01/05 10:09:48;;;;;;;;;;;;;;;20.66;27.93;98031.38;5055631;28;988;-80
2023/01/05 10:15:02;;;;;;;;;;;;;;;21.09;27.30;98024.75;5055169;28;925;-80
2023/01/05 10:17:28;;;;;;;;;;;;;;;21.39;26.69;98008.66;5055038;28;1968;-79
2023/01/05 10:19:53;;;;;;;;;;;;;;;20.84;27.96;98008.38;5071349;28;1910;-79
2023/01/05 10:22:37;;;;;;;;;;;;;;;20.72;27.87;98011.84;5070117;28;1346;-79
2023/01/05 10:25:05;;;;;;;;;;;;;;;21.18;27.50;98010.75;5071101;28;1072;-79
2023/01/05 10:27:39;;;;;;;;;;;;;;;21.05;27.52;98013.50;5071451;28;1031;-79
2023/01/05 10:30:12;;;;;;;;;;;;;;;21.21;27.25;98009.88;5056660;28;949;-79
2023/01/05 10:32:54;;;;;;;;;;;;;;;20.96;27.44;97992.72;5058983;28;1557;-80
2023/01/05 10:35:19;;;;;;;;;;;;;;;20.85;27.82;97978.03;5074973;28;1032;-80
2023/01/05 10:38:04;;;;;;;;;;;;;;;20.80;27.84;97980.16;5059657;28;940;-79
2023/01/05 10:40:32;;;;;;;;;;;;;;;21.14;27.47;97970.47;5058666;28;2017;-80
2023/01/05 10:43:16;;;;;;;;;;;;;;;21.25;27.28;97982.31;5058672;28;843;-79
2023/01/05 10:45:42;;;;;;;;;;;;;;;21.32;27.09;97979.31;5059660;28;955;-79
2023/01/05 10:48:14;;;;;;;;;;;;;;;20.94;27.40;97983.91;5058187;28;948;-79
2023/01/05 10:50:41;;;;;;;;;;;;;;;20.88;27.88;97979.97;5058597;28;1544;-79
2023/01/05 10:53:10;;;;;;;;;;;;;;;20.75;27.88;97966.53;5059189;28;907;-79
2023/01/05 10:55:37;;;;;;;;;;;;;;;21.06;27.82;97957.72;5058147;28;1150;-79
2023/01/05 10:58:03;;;;;;;;;;;;;;;20.98;27.55;97953.47;5059335;28;884;-79
2023/01/05 11:00:38;;;;;;;;;;;;;;;21.13;27.39;97948.25;5058358;28;1987;-80
2023/01/05 11:03:06;;;;;;;;;;;;;;;20.95;27.81;97940.22;5058134;28;858;-79
2023/01/05 11:05:35;;;;;;;;;;;;;;;20.74;27.87;97936.69;5074137;28;913;-79
2023/01/05 11:08:01;;;;;;;;;;;;;;;20.72;28.04;97933.47;5075041;28;1116;-79
2023/01/05 11:10:28;;;;;;;;;;;;;;;20.87;27.84;97930.31;5073344;28;1584;-79
2023/01/05 11:13:17;;;;;;;;;;;;;;;21.44;27.13;97923.19;5074331;28;1017;-80
2023/01/05 11:15:51;;;;;;;;;;;;;;;21.24;27.43;97924.13;5056367;28;968;-79
2023/01/05 11:18:30;;;;;;;;;;;;;;;21.04;27.42;97926.25;5039406;28;1460;-79
2023/01/05 11:21:11;;;;;;;;;;;;;;;20.98;27.59;97922.34;5036248;28;1991;-79
2023/01/05 11:23:41;;;;;;;;;;;;;;;20.70;28.04;97907.69;5036339;28;1049;-79
2023/01/05 11:26:20;;;;;;;;;;;;;;;21.01;27.65;97901.69;5036827;28;1029;-79
2023/01/05 11:29:05;;;;;;;;;;;;;;;20.98;27.60;97894.06;5035414;28;1654;-79
2023/01/05 11:31:30;;;;;;;;;;;;;;;21.26;27.30;97895.38;5036581;28;957;-79
2023/01/05 11:33:57;;;;;;;;;;;;;;;20.97;27.61;97892.47;5036081;28;1108;-79
2023/01/05 11:36:22;;;;;;;;;;;;;;;20.89;27.68;97879.78;5020158;28;956;-79
2023/01/05 11:38:51;;;;;;;;;;;;;;;20.75;27.93;97873.22;5019048;28;1542;-79
2023/01/05 11:41:17;;;;;;;;;;;;;;;21.01;27.93;97876.22;5019566;28;1918;-79
2023/01/05 11:43:44;;;;;;;;;;;;;;;21.29;27.23;97874.66;5002414;28;1564;-79
2023/01/05 11:46:11;;;;;;;;;;;;;;;21.38;26.80;97871.22;5019779;28;967;-79
2023/01/05 11:48:37;;;;;;;;;;;;;;;21.11;27.35;97869.47;4976509;28;1531;-79
2023/01/05 11:51:02;;;;;;;;;;;;;;;21.06;27.36;97867.19;4960946;28;1101;-79
2023/01/05 11:53:35;;;;;;;;;;;;;;;20.85;28.20;97862.09;4992643;28;919;-79
2023/01/05 11:56:21;;;;;;;;;;;;;;;20.61;28.15;97850.97;4996624;28;1121;-79
2023/01/05 11:58:47;;;;;;;;;;;;;;;20.99;27.72;97861.75;5012756;28;1727;-79
2023/01/05 12:01:19;;;;;;;;;;;;;;;21.39;27.21;97861.47;5016356;28;1918;-79
2023/01/05 12:04:02;;;;;;;;;;;;;;;21.40;26.99;97863.88;5015898;28;1066;-79
2023/01/05 12:06:28;;;;;;;;;;;;;;;21.10;27.36;97867.09;5016042;28;979;-79
2023/01/05 12:09:02;;;;;;;;;;;;;;;20.80;27.98;97864.22;5015274;28;1599;-79
2023/01/05 12:11:28;;;;;;;;;;;;;;;20.77;28.12;97862.25;5000186;28;1091;-79
2023/01/05 12:14:12;;;;;;;;;;;;;;;21.15;27.42;97870.19;4983447;28;1335;-79
2023/01/05 12:16:47;;;;;;;;;;;;;;;21.36;27.23;97868.06;5015655;28;934;-79
2023/01/05 12:19:15;;;;;;;;;;;;;;;21.35;27.01;97855.13;5010020;28;1898;-79
2023/01/05 12:21:44;;;;;;;;;;;;;;;21.01;27.52;97843.06;5038074;28;882;-79
2023/01/05 12:24:20;;;;;;;;;;;;;;;20.87;27.99;97859.59;5036836;28;1041;-79
2023/01/05 12:27:05;;;;;;;;;;;;;;;20.71;28.17;97847.06;5036135;28;1654;-79
2023/01/05 12:29:34;;;;;;;;;;;;;;;21.16;27.45;97849.13;5036115;28;905;-79
2023/01/05 12:32:16;;;;;;;;;;;;;;;21.51;27.14;97852.25;5036373;28;897;-79
2023/01/05 12:34:43;;;;;;;;;;;;;;;21.07;27.44;97846.16;5052816;28;1169;-79
2023/01/05 12:37:14;;;;;;;;;;;;;;;20.92;28.01;97844.94;5038653;28;1592;-78
2023/01/05 12:40:02;;;;;;;;;;;;;;;20.51;28.54;97843.53;5056105;28;2523;-77
2023/01/05 12:42:34;;;;;;;;;;;;;;;20.55;28.31;97841.44;4995602;28;997;-76
2023/01/05 12:45:18;;;;;;;;;;;;;;;21.13;27.59;97833.03;4979243;28;962;-78
2023/01/05 12:47:44;;;;;;;;;;;;;;;21.16;27.57;97837.81;4994336;28;1489;-77
2023/01/05 12:50:15;;;;;;;;;;;;;;;21.12;27.40;97837.13;4995355;28;944;-77
2023/01/05 12:52:43;;;;;;;;;;;;;;;21.09;27.72;97843.69;4994782;28;1309;-77
2023/01/05 12:55:16;;;;;;;;;;;;;;;20.74;28.17;97840.53;4978730;28;926;-77
2023/01/05 12:57:44;;;;;;;;;;;;;;;21.24;27.63;97839.22;4995284;28;1108;-77
2023/01/05 13:00:11;;;;;;;;;;;;;;;21.34;27.41;97848.66;4978985;28;1910;-77
2023/01/05 13:02:38;;;;;;;;;;;;;;;21.41;27.17;97859.00;4978764;28;1218;-77
2023/01/05 13:05:09;;;;;;;;;;;;;;;20.81;27.97;97851.66;4978810;28;984;-77
2023/01/05 13:07:37;;;;;;;;;;;;;;;20.66;28.45;97844.78;4994307;28;1555;-77
2023/01/05 13:10:11;;;;;;;;;;;;;;;20.65;28.33;97846.03;4978494;28;1003;-77
2023/01/05 13:12:36;;;;;;;;;;;;;;;20.93;27.86;97852.19;4978749;28;1081;-78
2023/01/05 13:15:11;;;;;;;;;;;;;;;21.19;27.48;97842.59;4978556;28;986;-77
2023/01/05 13:17:37;;;;;;;;;;;;;;;21.30;27.32;97843.13;4994767;28;1535;-77
2023/01/05 13:20:19;;;;;;;;;;;;;;;20.81;27.95;97846.00;5017553;28;1910;-77
2023/01/05 13:22:45;;;;;;;;;;;;;;;20.95;27.80;97832.75;5055354;28;1107;-78
2023/01/05 13:25:29;;;;;;;;;;;;;;;21.37;27.23;97813.03;5055101;28;966;-77
2023/01/05 13:27:55;;;;;;;;;;;;;;;21.03;27.77;97805.84;5054836;28;920;-77
2023/01/05 13:30:22;;;;;;;;;;;;;;;21.15;27.34;97807.94;5056433;28;852;-77
2023/01/05 13:32:53;;;;;;;;;;;;;;;21.02;27.74;97801.44;5054915;28;1084;-77
2023/01/05 13:35:21;;;;;;;;;;;;;;;20.78;28.13;97801.66;5054479;28;1256;-77
2023/01/05 13:37:58;;;;;;;;;;;;;;;20.66;28.14;97799.53;5055825;28;1344;-77
2023/01/05 13:40:27;;;;;;;;;;;;;;;21.12;27.47;97799.53;5052890;28;1990;-77